Terminal Aerodrome Forecast
Issued by NWS

Home | Current Version | Previous Version | Text Only | Print | Product List | Glossary On
Versions: 1 2 3 4 5 6 7 8 9 10 11 12 13 14 15 16 17 18 19 20 21 22 23 24 25 26 27 28
000
FTUS43 KGRR 230250 AAB
TAFMKG
TAF AMD
KMKG 230250Z 2303/2324 33006KT 6SM BR OVC005
     FM230500 35004KT 3SM BR OVC004
     FM230800 36005KT 1/2SM FG OVC001
     FM231500 36005KT 2SM BR OVC004
     FM231800 34008KT 4SM BR OVC015=

USA.gov is the U.S. government's official web portal to all federal, state and local government web resources and services.